Tajique, New Mexico
Current Conditions -  °F | °C
As of 12:35 AM on Wednesday 22 Oct 2014 (Local Time) from K0E0 Reporting Station
Moderate Fog Moderate Fog  
Wind Chill: 48°   Ceiling: 200
Heat Index: 48°   Visibility: 0.25mi
Dew Point: 46°   Wind: 0mph
Humidity: 93%   Direction: NA
Pressure: 30.17"   Gusts: NA
Location:  34.75°N, 106.29°W
Report Text: K0E0 220635Z AUTO 00000KT 1/4SM FG OVC002 09/08 A3017 RMK AO2 T00900080
Loading
Personal Weather Stations






























Interactive Weather Map
Tropical Storm Tracking
New forecast layout! Learn more

10-Day Weather Forecast

Advertisements
Track Severe Weather on mobile